sensor_id;sensor_type;location;lat;lon;timestamp;P1;durP1;ratioP1;P2;durP2;ratioP2
4903;SDS011;2467;48.142;11.616;2023-05-16T00:00:36;5.63;;;5.22;;
4903;SDS011;2467;48.142;11.616;2023-05-16T00:01:08;5.82;;;5.32;;
4903;SDS011;2467;48.142;11.616;2023-05-16T00:01:40;4.60;;;4.30;;
4903;SDS011;2467;48.142;11.616;2023-05-16T00:02:13;6.32;;;5.53;;
4903;SDS011;2467;48.142;11.616;2023-05-16T00:02:47;5.32;;;4.93;;
4903;SDS011;2467;48.142;11.616;2023-05-16T00:03:19;5.53;;;5.03;;
4903;SDS011;2467;48.142;11.616;2023-05-16T00:03:52;5.45;;;5.05;;
4903;SDS011;2467;48.142;11.616;2023-05-16T00:04:24;5.80;;;5.40;;
4903;SDS011;2467;48.142;11.616;2023-05-16T00:04:56;5.07;;;4.68;;
4903;SDS011;2467;48.142;11.616;2023-05-16T00:05:30;4.95;;;4.65;;
4903;SDS011;2467;48.142;11.616;2023-05-16T00:06:02;7.25;;;5.75;;
4903;SDS011;2467;48.142;11.616;2023-05-16T00:06:34;5.40;;;5.00;;
4903;SDS011;2467;48.142;11.616;2023-05-16T00:07:07;5.45;;;5.15;;
4903;SDS011;2467;48.142;11.616;2023-05-16T00:07:40;5.75;;;5.30;;
4903;SDS011;2467;48.142;11.616;2023-05-16T00:08:13;6.15;;;5.78;;
4903;SDS011;2467;48.142;11.616;2023-05-16T00:08:45;5.50;;;5.00;;
4903;SDS011;2467;48.142;11.616;2023-05-16T00:09:18;5.90;;;5.45;;
4903;SDS011;2467;48.142;11.616;2023-05-16T00:09:50;5.13;;;4.75;;
4903;SDS011;2467;48.142;11.616;2023-05-16T00:10:23;5.13;;;4.82;;
4903;SDS011;2467;48.142;11.616;2023-05-16T00:10:56;5.20;;;4.70;;
4903;SDS011;2467;48.142;11.616;2023-05-16T00:11:28;5.60;;;5.20;;
4903;SDS011;2467;48.142;11.616;2023-05-16T00:12:01;6.00;;;5.60;;
4903;SDS011;2467;48.142;11.616;2023-05-16T00:12:33;5.40;;;5.10;;
4903;SDS011;2467;48.142;11.616;2023-05-16T00:13:06;6.40;;;5.85;;
4903;SDS011;2467;48.142;11.616;2023-05-16T00:13:40;5.70;;;5.30;;
4903;SDS011;2467;48.142;11.616;2023-05-16T00:14:12;5.20;;;4.90;;
4903;SDS011;2467;48.142;11.616;2023-05-16T00:14:45;4.95;;;4.65;;
4903;SDS011;2467;48.142;11.616;2023-05-16T00:15:18;5.55;;;5.15;;
4903;SDS011;2467;48.142;11.616;2023-05-16T00:15:53;5.70;;;5.30;;
4903;SDS011;2467;48.142;11.616;2023-05-16T00:16:26;5.53;;;5.13;;
4903;SDS011;2467;48.142;11.616;2023-05-16T00:17:00;6.03;;;5.50;;
4903;SDS011;2467;48.142;11.616;2023-05-16T00:17:35;5.47;;;5.07;;
4903;SDS011;2467;48.142;11.616;2023-05-16T00:18:08;5.20;;;4.85;;
4903;SDS011;2467;48.142;11.616;2023-05-16T00:18:40;5.57;;;5.18;;
4903;SDS011;2467;48.142;11.616;2023-05-16T00:19:15;5.57;;;5.18;;
4903;SDS011;2467;48.142;11.616;2023-05-16T00:19:48;5.97;;;5.47;;
4903;SDS011;2467;48.142;11.616;2023-05-16T00:20:19;5.60;;;5.10;;
4903;SDS011;2467;48.142;11.616;2023-05-16T00:20:55;6.10;;;5.55;;
4903;SDS011;2467;48.142;11.616;2023-05-16T00:21:27;7.78;;;5.75;;
4903;SDS011;2467;48.142;11.616;2023-05-16T00:21:58;5.30;;;4.95;;
4903;SDS011;2467;48.142;11.616;2023-05-16T00:22:31;6.05;;;5.55;;
4903;SDS011;2467;48.142;11.616;2023-05-16T00:23:03;5.40;;;4.97;;
4903;SDS011;2467;48.142;11.616;2023-05-16T00:23:35;6.72;;;5.50;;
4903;SDS011;2467;48.142;11.616;2023-05-16T00:24:08;5.70;;;5.20;;
4903;SDS011;2467;48.142;11.616;2023-05-16T00:24:40;6.55;;;6.05;;
4903;SDS011;2467;48.142;11.616;2023-05-16T00:25:12;5.53;;;5.13;;
4903;SDS011;2467;48.142;11.616;2023-05-16T00:25:45;6.28;;;5.68;;
4903;SDS011;2467;48.142;11.616;2023-05-16T00:26:17;6.13;;;5.63;;
4903;SDS011;2467;48.142;11.616;2023-05-16T00:26:49;5.40;;;5.00;;
4903;SDS011;2467;48.142;11.616;2023-05-16T00:27:22;5.57;;;5.10;;
4903;SDS011;2467;48.142;11.616;2023-05-16T00:27:53;6.05;;;5.65;;
4903;SDS011;2467;48.142;11.616;2023-05-16T00:28:25;5.82;;;5.32;;
4903;SDS011;2467;48.142;11.616;2023-05-16T00:28:58;5.45;;;5.05;;
4903;SDS011;2467;48.142;11.616;2023-05-16T00:29:30;6.20;;;5.70;;
4903;SDS011;2467;48.142;11.616;2023-05-16T00:30:02;5.88;;;5.47;;
4903;SDS011;2467;48.142;11.616;2023-05-16T00:30:36;5.15;;;4.85;;
4903;SDS011;2467;48.142;11.616;2023-05-16T00:31:08;6.03;;;5.53;;
4903;SDS011;2467;48.142;11.616;2023-05-16T00:31:40;5.47;;;4.90;;
4903;SDS011;2467;48.142;11.616;2023-05-16T00:32:13;6.10;;;5.60;;
4903;SDS011;2467;48.142;11.616;2023-05-16T00:32:45;5.60;;;5.18;;
4903;SDS011;2467;48.142;11.616;2023-05-16T00:33:18;6.03;;;5.53;;
4903;SDS011;2467;48.142;11.616;2023-05-16T00:33:51;5.90;;;5.50;;
4903;SDS011;2467;48.142;11.616;2023-05-16T00:34:23;6.10;;;5.65;;
4903;SDS011;2467;48.142;11.616;2023-05-16T00:34:55;6.63;;;6.00;;
4903;SDS011;2467;48.142;11.616;2023-05-16T00:35:28;5.28;;;4.95;;
4903;SDS011;2467;48.142;11.616;2023-05-16T00:36:00;5.50;;;5.10;;
4903;SDS011;2467;48.142;11.616;2023-05-16T00:36:32;6.28;;;5.78;;
4903;SDS011;2467;48.142;11.616;2023-05-16T00:37:06;5.32;;;4.93;;
4903;SDS011;2467;48.142;11.616;2023-05-16T00:37:37;6.47;;;5.97;;
4903;SDS011;2467;48.142;11.616;2023-05-16T00:38:09;5.75;;;5.35;;
4903;SDS011;2467;48.142;11.616;2023-05-16T00:38:42;5.95;;;5.55;;
4903;SDS011;2467;48.142;11.616;2023-05-16T00:39:15;5.97;;;5.47;;
4903;SDS011;2467;48.142;11.616;2023-05-16T00:39:48;5.90;;;5.50;;
4903;SDS011;2467;48.142;11.616;2023-05-16T00:40:20;6.78;;;6.13;;
4903;SDS011;2467;48.142;11.616;2023-05-16T00:40:52;5.90;;;5.40;;
4903;SDS011;2467;48.142;11.616;2023-05-16T00:41:24;6.50;;;5.90;;
4903;SDS011;2467;48.142;11.616;2023-05-16T00:41:57;6.47;;;5.95;;
4903;SDS011;2467;48.142;11.616;2023-05-16T00:42:29;6.05;;;5.55;;
4903;SDS011;2467;48.142;11.616;2023-05-16T00:43:01;6.25;;;5.75;;
4903;SDS011;2467;48.142;11.616;2023-05-16T00:43:33;6.07;;;5.68;;
4903;SDS011;2467;48.142;11.616;2023-05-16T00:44:05;5.90;;;5.50;;
4903;SDS011;2467;48.142;11.616;2023-05-16T00:44:37;7.82;;;5.80;;
4903;SDS011;2467;48.142;11.616;2023-05-16T00:45:10;5.80;;;5.40;;
4903;SDS011;2467;48.142;11.616;2023-05-16T00:45:42;6.88;;;6.38;;
4903;SDS011;2467;48.142;11.616;2023-05-16T00:46:14;6.03;;;5.55;;
4903;SDS011;2467;48.142;11.616;2023-05-16T00:46:47;6.50;;;5.90;;
4903;SDS011;2467;48.142;11.616;2023-05-16T00:47:19;5.45;;;5.03;;
4903;SDS011;2467;48.142;11.616;2023-05-16T00:47:51;6.45;;;6.03;;
4903;SDS011;2467;48.142;11.616;2023-05-16T00:48:25;7.93;;;6.00;;
4903;SDS011;2467;48.142;11.616;2023-05-16T00:48:57;6.78;;;6.05;;
4903;SDS011;2467;48.142;11.616;2023-05-16T00:49:29;5.72;;;5.35;;
4903;SDS011;2467;48.142;11.616;2023-05-16T00:50:02;5.20;;;4.88;;
4903;SDS011;2467;48.142;11.616;2023-05-16T00:50:35;6.20;;;5.70;;
4903;SDS011;2467;48.142;11.616;2023-05-16T00:51:07;6.47;;;5.97;;
4903;SDS011;2467;48.142;11.616;2023-05-16T00:51:40;6.00;;;5.50;;
4903;SDS011;2467;48.142;11.616;2023-05-16T00:52:12;5.57;;;5.07;;
4903;SDS011;2467;48.142;11.616;2023-05-16T00:52:44;6.65;;;6.05;;
4903;SDS011;2467;48.142;11.616;2023-05-16T00:53:17;7.07;;;6.57;;
4903;SDS011;2467;48.142;11.616;2023-05-16T00:53:49;6.72;;;6.22;;
4903;SDS011;2467;48.142;11.616;2023-05-16T00:54:23;7.38;;;6.78;;
4903;SDS011;2467;48.142;11.616;2023-05-16T00:54:58;7.28;;;6.10;;
4903;SDS011;2467;48.142;11.616;2023-05-16T00:55:31;6.85;;;6.35;;
4903;SDS011;2467;48.142;11.616;2023-05-16T00:56:04;6.60;;;6.05;;
4903;SDS011;2467;48.142;11.616;2023-05-16T00:56:37;6.03;;;5.63;;
4903;SDS011;2467;48.142;11.616;2023-05-16T00:57:10;5.80;;;5.40;;
4903;SDS011;2467;48.142;11.616;2023-05-16T00:57:42;6.93;;;6.28;;
4903;SDS011;2467;48.142;11.616;2023-05-16T00:58:14;5.53;;;5.18;;
4903;SDS011;2467;48.142;11.616;2023-05-16T00:58:47;5.78;;;5.38;;
4903;SDS011;2467;48.142;11.616;2023-05-16T00:59:20;6.32;;;5.82;;
4903;SDS011;2467;48.142;11.616;2023-05-16T00:59:52;5.75;;;5.30;;
4903;SDS011;2467;48.142;11.616;2023-05-16T01:00:25;6.88;;;6.40;;
4903;SDS011;2467;48.142;11.616;2023-05-16T01:00:58;6.63;;;6.13;;
4903;SDS011;2467;48.142;11.616;2023-05-16T01:01:33;6.78;;;6.22;;
4903;SDS011;2467;48.142;11.616;2023-05-16T01:02:07;6.35;;;5.82;;
4903;SDS011;2467;48.142;11.616;2023-05-16T01:02:39;6.38;;;5.97;;
4903;SDS011;2467;48.142;11.616;2023-05-16T01:03:12;5.75;;;5.35;;
4903;SDS011;2467;48.142;11.616;2023-05-16T01:03:46;6.43;;;5.82;;
4903;SDS011;2467;48.142;11.616;2023-05-16T01:04:19;6.15;;;5.70;;
4903;SDS011;2467;48.142;11.616;2023-05-16T01:04:51;5.68;;;5.25;;
4903;SDS011;2467;48.142;11.616;2023-05-16T01:05:23;6.75;;;6.13;;
4903;SDS011;2467;48.142;11.616;2023-05-16T01:05:56;6.63;;;6.10;;
4903;SDS011;2467;48.142;11.616;2023-05-16T01:06:28;5.68;;;5.28;;
4903;SDS011;2467;48.142;11.616;2023-05-16T01:07:01;7.35;;;6.43;;
4903;SDS011;2467;48.142;11.616;2023-05-16T01:07:34;6.30;;;5.80;;
4903;SDS011;2467;48.142;11.616;2023-05-16T01:08:06;5.57;;;5.15;;
4903;SDS011;2467;48.142;11.616;2023-05-16T01:08:37;7.35;;;6.75;;
4903;SDS011;2467;48.142;11.616;2023-05-16T01:09:10;5.70;;;5.32;;
4903;SDS011;2467;48.142;11.616;2023-05-16T01:09:43;8.90;;;6.05;;
4903;SDS011;2467;48.142;11.616;2023-05-16T01:10:14;6.10;;;5.60;;
4903;SDS011;2467;48.142;11.616;2023-05-16T01:10:48;6.85;;;6.25;;
4903;SDS011;2467;48.142;11.616;2023-05-16T01:11:26;6.22;;;5.82;;
4903;SDS011;2467;48.142;11.616;2023-05-16T01:12:08;6.32;;;5.72;;
4903;SDS011;2467;48.142;11.616;2023-05-16T01:12:44;7.03;;;6.43;;
4903;SDS011;2467;48.142;11.616;2023-05-16T01:13:30;7.05;;;5.43;;
4903;SDS011;2467;48.142;11.616;2023-05-16T01:14:18;6.40;;;5.90;;
4903;SDS011;2467;48.142;11.616;2023-05-16T01:15:01;5.68;;;5.28;;
4903;SDS011;2467;48.142;11.616;2023-05-16T01:15:38;6.55;;;5.95;;
4903;SDS011;2467;48.142;11.616;2023-05-16T01:16:19;6.18;;;5.78;;
4903;SDS011;2467;48.142;11.616;2023-05-16T01:16:58;6.45;;;5.90;;
4903;SDS011;2467;48.142;11.616;2023-05-16T01:17:42;6.63;;;6.20;;
4903;SDS011;2467;48.142;11.616;2023-05-16T01:18:28;6.75;;;5.43;;
4903;SDS011;2467;48.142;11.616;2023-05-16T01:19:13;7.00;;;6.50;;
4903;SDS011;2467;48.142;11.616;2023-05-16T01:20:02;5.85;;;5.35;;
4903;SDS011;2467;48.142;11.616;2023-05-16T01:20:42;5.25;;;4.85;;
4903;SDS011;2467;48.142;11.616;2023-05-16T01:21:21;5.72;;;5.32;;
4903;SDS011;2467;48.142;11.616;2023-05-16T01:22:09;5.50;;;5.10;;
4903;SDS011;2467;48.142;11.616;2023-05-16T01:22:51;6.30;;;5.80;;
4903;SDS011;2467;48.142;11.616;2023-05-16T01:23:36;5.43;;;5.03;;
4903;SDS011;2467;48.142;11.616;2023-05-16T01:24:21;5.93;;;5.35;;
4903;SDS011;2467;48.142;11.616;2023-05-16T01:25:01;6.25;;;5.75;;
4903;SDS011;2467;48.142;11.616;2023-05-16T01:25:45;6.97;;;6.32;;
4903;SDS011;2467;48.142;11.616;2023-05-16T01:26:29;6.28;;;5.78;;
4903;SDS011;2467;48.142;11.616;2023-05-16T01:27:02;5.90;;;5.50;;
4903;SDS011;2467;48.142;11.616;2023-05-16T01:27:37;6.35;;;5.65;;
4903;SDS011;2467;48.142;11.616;2023-05-16T01:28:11;5.32;;;4.93;;
4903;SDS011;2467;48.142;11.616;2023-05-16T01:28:45;6.80;;;6.30;;
4903;SDS011;2467;48.142;11.616;2023-05-16T01:29:18;6.75;;;5.75;;
4903;SDS011;2467;48.142;11.616;2023-05-16T01:29:52;6.00;;;5.60;;
4903;SDS011;2467;48.142;11.616;2023-05-16T01:30:26;6.32;;;5.82;;
4903;SDS011;2467;48.142;11.616;2023-05-16T01:31:03;6.25;;;5.65;;
4903;SDS011;2467;48.142;11.616;2023-05-16T01:31:36;6.78;;;6.18;;
4903;SDS011;2467;48.142;11.616;2023-05-16T01:32:08;7.15;;;6.55;;
4903;SDS011;2467;48.142;11.616;2023-05-16T01:32:41;6.57;;;6.13;;
4903;SDS011;2467;48.142;11.616;2023-05-16T01:33:13;7.93;;;7.32;;
4903;SDS011;2467;48.142;11.616;2023-05-16T01:33:45;6.80;;;6.20;;
4903;SDS011;2467;48.142;11.616;2023-05-16T01:34:18;6.57;;;6.07;;
4903;SDS011;2467;48.142;11.616;2023-05-16T01:34:50;7.82;;;7.22;;
4903;SDS011;2467;48.142;11.616;2023-05-16T01:35:22;6.68;;;6.07;;
4903;SDS011;2467;48.142;11.616;2023-05-16T01:35:57;6.35;;;5.88;;
4903;SDS011;2467;48.142;11.616;2023-05-16T01:36:35;6.30;;;5.80;;
4903;SDS011;2467;48.142;11.616;2023-05-16T01:37:13;6.00;;;5.57;;
4903;SDS011;2467;48.142;11.616;2023-05-16T01:38:02;5.60;;;5.20;;
4903;SDS011;2467;48.142;11.616;2023-05-16T01:38:43;7.03;;;6.53;;
4903;SDS011;2467;48.142;11.616;2023-05-16T01:39:26;6.57;;;6.10;;
4903;SDS011;2467;48.142;11.616;2023-05-16T01:40:07;6.70;;;6.30;;
4903;SDS011;2467;48.142;11.616;2023-05-16T01:40:45;6.60;;;6.00;;
4903;SDS011;2467;48.142;11.616;2023-05-16T01:41:22;6.63;;;6.13;;
4903;SDS011;2467;48.142;11.616;2023-05-16T01:42:02;7.13;;;6.63;;
4903;SDS011;2467;48.142;11.616;2023-05-16T01:42:36;6.03;;;5.53;;
4903;SDS011;2467;48.142;11.616;2023-05-16T01:43:15;7.00;;;6.57;;
4903;SDS011;2467;48.142;11.616;2023-05-16T01:43:53;6.00;;;5.40;;
4903;SDS011;2467;48.142;11.616;2023-05-16T01:44:30;7.82;;;5.82;;
4903;SDS011;2467;48.142;11.616;2023-05-16T01:45:06;6.35;;;5.95;;
4903;SDS011;2467;48.142;11.616;2023-05-16T01:45:46;6.20;;;5.60;;
4903;SDS011;2467;48.142;11.616;2023-05-16T01:46:25;6.10;;;5.60;;
4903;SDS011;2467;48.142;11.616;2023-05-16T01:47:02;5.80;;;5.40;;
4903;SDS011;2467;48.142;11.616;2023-05-16T01:47:39;6.50;;;6.00;;
4903;SDS011;2467;48.142;11.616;2023-05-16T01:48:15;6.30;;;5.80;;
4903;SDS011;2467;48.142;11.616;2023-05-16T01:48:50;6.97;;;6.40;;
4903;SDS011;2467;48.142;11.616;2023-05-16T01:49:24;7.15;;;6.50;;
4903;SDS011;2467;48.142;11.616;2023-05-16T01:50:02;7.25;;;6.68;;
4903;SDS011;2467;48.142;11.616;2023-05-16T01:50:44;6.80;;;6.30;;
4903;SDS011;2467;48.142;11.616;2023-05-16T01:51:20;6.90;;;6.40;;
4903;SDS011;2467;48.142;11.616;2023-05-16T01:51:57;6.53;;;6.03;;
4903;SDS011;2467;48.142;11.616;2023-05-16T01:52:33;9.43;;;7.65;;
4903;SDS011;2467;48.142;11.616;2023-05-16T01:53:10;6.78;;;6.18;;
4903;SDS011;2467;48.142;11.616;2023-05-16T01:53:45;7.05;;;6.50;;
4903;SDS011;2467;48.142;11.616;2023-05-16T01:54:21;6.78;;;6.18;;
4903;SDS011;2467;48.142;11.616;2023-05-16T01:54:56;6.60;;;6.10;;
4903;SDS011;2467;48.142;11.616;2023-05-16T01:55:31;7.70;;;7.10;;
4903;SDS011;2467;48.142;11.616;2023-05-16T01:56:12;7.63;;;7.03;;
4903;SDS011;2467;48.142;11.616;2023-05-16T01:56:48;5.82;;;5.43;;
4903;SDS011;2467;48.142;11.616;2023-05-16T01:57:25;7.30;;;6.70;;
4903;SDS011;2467;48.142;11.616;2023-05-16T01:57:59;6.38;;;5.88;;
4903;SDS011;2467;48.142;11.616;2023-05-16T01:58:34;7.22;;;6.53;;
4903;SDS011;2467;48.142;11.616;2023-05-16T01:59:07;7.68;;;7.07;;
4903;SDS011;2467;48.142;11.616;2023-05-16T01:59:42;7.13;;;6.60;;
4903;SDS011;2467;48.142;11.616;2023-05-16T02:00:15;6.45;;;5.95;;
4903;SDS011;2467;48.142;11.616;2023-05-16T02:00:47;7.25;;;6.75;;
4903;SDS011;2467;48.142;11.616;2023-05-16T02:01:20;7.05;;;6.45;;
4903;SDS011;2467;48.142;11.616;2023-05-16T02:01:53;7.35;;;6.75;;
4903;SDS011;2467;48.142;11.616;2023-05-16T02:02:27;6.82;;;6.32;;
4903;SDS011;2467;48.142;11.616;2023-05-16T02:02:59;7.78;;;7.18;;
4903;SDS011;2467;48.142;11.616;2023-05-16T02:03:32;7.15;;;6.65;;
4903;SDS011;2467;48.142;11.616;2023-05-16T02:04:04;7.20;;;6.70;;
4903;SDS011;2467;48.142;11.616;2023-05-16T02:04:37;7.72;;;6.65;;
4903;SDS011;2467;48.142;11.616;2023-05-16T02:05:09;7.40;;;6.75;;
4903;SDS011;2467;48.142;11.616;2023-05-16T02:05:40;7.35;;;6.75;;
4903;SDS011;2467;48.142;11.616;2023-05-16T02:06:13;6.15;;;5.70;;
4903;SDS011;2467;48.142;11.616;2023-05-16T02:06:45;7.68;;;7.07;;
4903;SDS011;2467;48.142;11.616;2023-05-16T02:07:17;7.50;;;7.00;;
4903;SDS011;2467;48.142;11.616;2023-05-16T02:07:50;7.28;;;6.68;;
4903;SDS011;2467;48.142;11.616;2023-05-16T02:08:22;6.82;;;6.22;;
4903;SDS011;2467;48.142;11.616;2023-05-16T02:08:54;6.55;;;6.05;;
4903;SDS011;2467;48.142;11.616;2023-05-16T02:09:27;7.97;;;7.38;;
4903;SDS011;2467;48.142;11.616;2023-05-16T02:09:59;6.38;;;5.88;;
4903;SDS011;2467;48.142;11.616;2023-05-16T02:10:31;7.13;;;6.53;;
4903;SDS011;2467;48.142;11.616;2023-05-16T02:11:03;8.45;;;7.75;;
4903;SDS011;2467;48.142;11.616;2023-05-16T02:11:35;8.35;;;7.75;;
4903;SDS011;2467;48.142;11.616;2023-05-16T02:12:07;7.90;;;7.13;;
4903;SDS011;2467;48.142;11.616;2023-05-16T02:12:41;7.70;;;6.82;;
4903;SDS011;2467;48.142;11.616;2023-05-16T02:13:13;7.30;;;6.70;;
4903;SDS011;2467;48.142;11.616;2023-05-16T02:13:45;8.35;;;7.75;;
4903;SDS011;2467;48.142;11.616;2023-05-16T02:14:17;6.93;;;6.43;;
4903;SDS011;2467;48.142;11.616;2023-05-16T02:14:50;7.82;;;7.18;;
4903;SDS011;2467;48.142;11.616;2023-05-16T02:15:22;7.75;;;7.15;;
4903;SDS011;2467;48.142;11.616;2023-05-16T02:15:54;7.10;;;6.60;;
4903;SDS011;2467;48.142;11.616;2023-05-16T02:16:28;8.30;;;7.70;;
4903;SDS011;2467;48.142;11.616;2023-05-16T02:17:00;7.88;;;7.10;;
4903;SDS011;2467;48.142;11.616;2023-05-16T02:17:32;7.57;;;7.03;;
4903;SDS011;2467;48.142;11.616;2023-05-16T02:18:05;8.52;;;7.90;;
4903;SDS011;2467;48.142;11.616;2023-05-16T02:18:37;7.80;;;7.20;;
4903;SDS011;2467;48.142;11.616;2023-05-16T02:19:09;8.20;;;7.60;;
4903;SDS011;2467;48.142;11.616;2023-05-16T02:19:41;7.50;;;7.00;;
4903;SDS011;2467;48.142;11.616;2023-05-16T02:20:15;7.78;;;7.10;;
4903;SDS011;2467;48.142;11.616;2023-05-16T02:20:47;7.05;;;6.55;;
4903;SDS011;2467;48.142;11.616;2023-05-16T02:21:18;8.65;;;7.75;;
4903;SDS011;2467;48.142;11.616;2023-05-16T02:21:51;7.15;;;6.63;;
4903;SDS011;2467;48.142;11.616;2023-05-16T02:22:23;6.60;;;6.10;;
4903;SDS011;2467;48.142;11.616;2023-05-16T02:22:55;7.35;;;6.70;;
4903;SDS011;2467;48.142;11.616;2023-05-16T02:23:28;7.10;;;6.50;;
4903;SDS011;2467;48.142;11.616;2023-05-16T02:23:59;8.20;;;7.10;;
4903;SDS011;2467;48.142;11.616;2023-05-16T02:24:31;7.97;;;7.32;;
4903;SDS011;2467;48.142;11.616;2023-05-16T02:25:05;8.45;;;7.68;;
4903;SDS011;2467;48.142;11.616;2023-05-16T02:25:37;7.32;;;6.70;;
4903;SDS011;2467;48.142;11.616;2023-05-16T02:26:09;7.93;;;7.32;;
4903;SDS011;2467;48.142;11.616;2023-05-16T02:26:42;7.10;;;6.40;;
4903;SDS011;2467;48.142;11.616;2023-05-16T02:27:14;7.80;;;7.05;;
4903;SDS011;2467;48.142;11.616;2023-05-16T02:27:47;7.07;;;6.50;;
4903;SDS011;2467;48.142;11.616;2023-05-16T02:28:20;7.50;;;6.80;;
4903;SDS011;2467;48.142;11.616;2023-05-16T02:28:52;6.97;;;6.45;;
4903;SDS011;2467;48.142;11.616;2023-05-16T02:29:24;8.48;;;7.88;;
4903;SDS011;2467;48.142;11.616;2023-05-16T02:29:57;7.78;;;7.18;;
4903;SDS011;2467;48.142;11.616;2023-05-16T02:30:29;8.20;;;7.60;;
4903;SDS011;2467;48.142;11.616;2023-05-16T02:31:00;7.60;;;7.00;;
4903;SDS011;2467;48.142;11.616;2023-05-16T02:31:34;7.70;;;7.10;;
4903;SDS011;2467;48.142;11.616;2023-05-16T02:32:06;7.97;;;7.28;;
4903;SDS011;2467;48.142;11.616;2023-05-16T02:32:39;9.15;;;8.38;;
4903;SDS011;2467;48.142;11.616;2023-05-16T02:33:14;7.78;;;7.18;;
4903;SDS011;2467;48.142;11.616;2023-05-16T02:33:46;8.90;;;8.20;;
4903;SDS011;2467;48.142;11.616;2023-05-16T02:34:18;7.80;;;7.25;;
4903;SDS011;2467;48.142;11.616;2023-05-16T02:34:51;8.40;;;7.70;;
4903;SDS011;2467;48.142;11.616;2023-05-16T02:35:23;7.22;;;6.63;;
4903;SDS011;2467;48.142;11.616;2023-05-16T02:35:56;8.38;;;7.68;;
4903;SDS011;2467;48.142;11.616;2023-05-16T02:36:28;7.85;;;7.25;;
4903;SDS011;2467;48.142;11.616;2023-05-16T02:37:01;8.05;;;7.35;;
4903;SDS011;2467;48.142;11.616;2023-05-16T02:37:32;7.95;;;7.30;;
4903;SDS011;2467;48.142;11.616;2023-05-16T02:38:05;7.80;;;7.20;;
4903;SDS011;2467;48.142;11.616;2023-05-16T02:38:37;8.50;;;7.80;;
4903;SDS011;2467;48.142;11.616;2023-05-16T02:39:09;8.75;;;8.05;;
4903;SDS011;2467;48.142;11.616;2023-05-16T02:39:43;7.63;;;7.03;;
4903;SDS011;2467;48.142;11.616;2023-05-16T02:40:14;8.30;;;7.70;;
4903;SDS011;2467;48.142;11.616;2023-05-16T02:40:46;7.28;;;6.78;;
4903;SDS011;2467;48.142;11.616;2023-05-16T02:41:18;8.20;;;7.38;;
4903;SDS011;2467;48.142;11.616;2023-05-16T02:41:52;9.10;;;8.43;;
4903;SDS011;2467;48.142;11.616;2023-05-16T02:42:24;8.95;;;7.45;;
4903;SDS011;2467;48.142;11.616;2023-05-16T02:42:58;9.15;;;8.27;;
4903;SDS011;2467;48.142;11.616;2023-05-16T02:43:31;7.45;;;6.95;;
4903;SDS011;2467;48.142;11.616;2023-05-16T02:44:03;7.55;;;6.95;;
4903;SDS011;2467;48.142;11.616;2023-05-16T02:44:35;7.93;;;7.30;;
4903;SDS011;2467;48.142;11.616;2023-05-16T02:45:08;8.35;;;7.72;;
4903;SDS011;2467;48.142;11.616;2023-05-16T02:45:41;7.93;;;7.28;;
4903;SDS011;2467;48.142;11.616;2023-05-16T02:46:19;8.25;;;7.63;;
4903;SDS011;2467;48.142;11.616;2023-05-16T02:46:53;8.10;;;7.50;;
4903;SDS011;2467;48.142;11.616;2023-05-16T02:47:25;7.90;;;7.25;;
4903;SDS011;2467;48.142;11.616;2023-05-16T02:47:57;7.50;;;6.90;;
4903;SDS011;2467;48.142;11.616;2023-05-16T02:48:29;8.88;;;8.07;;
4903;SDS011;2467;48.142;11.616;2023-05-16T02:49:02;8.27;;;7.57;;
4903;SDS011;2467;48.142;11.616;2023-05-16T02:49:33;8.38;;;7.75;;
4903;SDS011;2467;48.142;11.616;2023-05-16T02:50:06;7.85;;;7.18;;
4903;SDS011;2467;48.142;11.616;2023-05-16T02:50:39;8.00;;;7.40;;
4903;SDS011;2467;48.142;11.616;2023-05-16T02:51:11;8.13;;;7.43;;
4903;SDS011;2467;48.142;11.616;2023-05-16T02:51:43;8.38;;;7.78;;
4903;SDS011;2467;48.142;11.616;2023-05-16T02:52:15;7.90;;;7.30;;
4903;SDS011;2467;48.142;11.616;2023-05-16T02:52:47;8.00;;;7.30;;
4903;SDS011;2467;48.142;11.616;2023-05-16T02:53:19;8.73;;;7.93;;
4903;SDS011;2467;48.142;11.616;2023-05-16T02:53:51;8.20;;;7.60;;
4903;SDS011;2467;48.142;11.616;2023-05-16T02:54:27;7.63;;;7.03;;
4903;SDS011;2467;48.142;11.616;2023-05-16T02:54:58;7.93;;;7.25;;
4903;SDS011;2467;48.142;11.616;2023-05-16T02:55:50;7.00;;;6.40;;
4903;SDS011;2467;48.142;11.616;2023-05-16T02:56:23;7.00;;;6.50;;
4903;SDS011;2467;48.142;11.616;2023-05-16T02:56:56;7.30;;;6.75;;
4903;SDS011;2467;48.142;11.616;2023-05-16T02:57:28;7.75;;;7.15;;
4903;SDS011;2467;48.142;11.616;2023-05-16T02:58:02;8.57;;;7.60;;
4903;SDS011;2467;48.142;11.616;2023-05-16T02:58:34;7.93;;;7.32;;
4903;SDS011;2467;48.142;11.616;2023-05-16T02:59:06;7.40;;;6.90;;
4903;SDS011;2467;48.142;11.616;2023-05-16T02:59:39;7.22;;;6.70;;
4903;SDS011;2467;48.142;11.616;2023-05-16T03:00:11;7.10;;;6.60;;
4903;SDS011;2467;48.142;11.616;2023-05-16T03:00:46;7.47;;;6.88;;
4903;SDS011;2467;48.142;11.616;2023-05-16T03:01:19;8.68;;;7.88;;
4903;SDS011;2467;48.142;11.616;2023-05-16T03:01:51;8.73;;;8.10;;
4903;SDS011;2467;48.142;11.616;2023-05-16T03:02:23;8.57;;;7.45;;
4903;SDS011;2467;48.142;11.616;2023-05-16T03:02:56;7.90;;;7.22;;
4903;SDS011;2467;48.142;11.616;2023-05-16T03:03:28;7.70;;;7.10;;
4903;SDS011;2467;48.142;11.616;2023-05-16T03:04:00;7.70;;;7.10;;
4903;SDS011;2467;48.142;11.616;2023-05-16T03:04:33;7.45;;;6.85;;
4903;SDS011;2467;48.142;11.616;2023-05-16T03:05:05;8.02;;;7.43;;
4903;SDS011;2467;48.142;11.616;2023-05-16T03:05:38;7.93;;;7.32;;
4903;SDS011;2467;48.142;11.616;2023-05-16T03:06:10;7.82;;;7.22;;
4903;SDS011;2467;48.142;11.616;2023-05-16T03:06:42;9.02;;;8.32;;
4903;SDS011;2467;48.142;11.616;2023-05-16T03:07:14;8.00;;;7.40;;
4903;SDS011;2467;48.142;11.616;2023-05-16T03:07:47;8.45;;;7.75;;
4903;SDS011;2467;48.142;11.616;2023-05-16T03:08:19;7.75;;;7.05;;
4903;SDS011;2467;48.142;11.616;2023-05-16T03:08:51;9.02;;;8.23;;
4903;SDS011;2467;48.142;11.616;2023-05-16T03:09:24;8.73;;;8.02;;
4903;SDS011;2467;48.142;11.616;2023-05-16T03:09:56;7.82;;;7.18;;
4903;SDS011;2467;48.142;11.616;2023-05-16T03:10:28;8.40;;;7.80;;
4903;SDS011;2467;48.142;11.616;2023-05-16T03:11:00;9.75;;;9.05;;
4903;SDS011;2467;48.142;11.616;2023-05-16T03:11:33;8.50;;;7.70;;
4903;SDS011;2467;48.142;11.616;2023-05-16T03:12:07;8.52;;;7.93;;
4903;SDS011;2467;48.142;11.616;2023-05-16T03:12:39;10.20;;;9.18;;
4903;SDS011;2467;48.142;11.616;2023-05-16T03:13:13;7.63;;;6.95;;
4903;SDS011;2467;48.142;11.616;2023-05-16T03:13:45;8.20;;;7.40;;
4903;SDS011;2467;48.142;11.616;2023-05-16T03:14:16;8.15;;;7.40;;
4903;SDS011;2467;48.142;11.616;2023-05-16T03:14:49;8.30;;;7.70;;
4903;SDS011;2467;48.142;11.616;2023-05-16T03:15:21;8.93;;;8.23;;
4903;SDS011;2467;48.142;11.616;2023-05-16T03:15:53;6.85;;;6.25;;
4903;SDS011;2467;48.142;11.616;2023-05-16T03:16:26;8.05;;;7.45;;
4903;SDS011;2467;48.142;11.616;2023-05-16T03:16:58;8.13;;;7.50;;
4903;SDS011;2467;48.142;11.616;2023-05-16T03:17:30;8.02;;;7.25;;
4903;SDS011;2467;48.142;11.616;2023-05-16T03:18:03;8.65;;;8.00;;
4903;SDS011;2467;48.142;11.616;2023-05-16T03:18:35;7.75;;;7.05;;
4903;SDS011;2467;48.142;11.616;2023-05-16T03:19:07;9.10;;;8.30;;
4903;SDS011;2467;48.142;11.616;2023-05-16T03:19:40;8.88;;;8.05;;
4903;SDS011;2467;48.142;11.616;2023-05-16T03:20:12;7.68;;;7.18;;
4903;SDS011;2467;48.142;11.616;2023-05-16T03:20:44;8.23;;;7.53;;
4903;SDS011;2467;48.142;11.616;2023-05-16T03:21:17;8.70;;;8.00;;
4903;SDS011;2467;48.142;11.616;2023-05-16T03:21:49;8.55;;;7.85;;
4903;SDS011;2467;48.142;11.616;2023-05-16T03:22:21;8.00;;;7.40;;
4903;SDS011;2467;48.142;11.616;2023-05-16T03:22:53;8.35;;;7.75;;
4903;SDS011;2467;48.142;11.616;2023-05-16T03:23:25;8.27;;;7.65;;
4903;SDS011;2467;48.142;11.616;2023-05-16T03:23:57;9.30;;;8.50;;
4903;SDS011;2467;48.142;11.616;2023-05-16T03:24:30;7.78;;;7.18;;
4903;SDS011;2467;48.142;11.616;2023-05-16T03:25:02;8.50;;;7.70;;
4903;SDS011;2467;48.142;11.616;2023-05-16T03:25:35;9.25;;;8.50;;
4903;SDS011;2467;48.142;11.616;2023-05-16T03:26:07;9.00;;;8.27;;
4903;SDS011;2467;48.142;11.616;2023-05-16T03:26:39;9.27;;;8.43;;